Sao Joao do Tigre, Brazil
Current Conditions -  °F | °C
As of 6:00 PM on Saturday 20 Dec 2014 (Local Time) from SBKG Reporting Station
Few Clouds Few Clouds  
Wind Chill: 79°   Ceiling: Unl
Heat Index: 81°   Visibility: 6mi
Dew Point: 66°   Wind: 14mph
Humidity: 65%   Direction: 80°E
Pressure: 29.97"   Gusts: NA
Location:  8.07°S, 36.85°W
Report Text: SBKG 202100Z 08012KT 9999 FEW040 26/19 Q1015
Loading
Personal Weather Stations






























Interactive Weather Map New forecast layout! Learn more

10-Day Weather Forecast

Advertisements
Track Severe Weather on mobile